Time;durP1;ratioP1;P1;durP2;ratioP2;P2;SDS_P1;SDS_P2;PMS_P1;PMS_P2;Temp;Humidity;BMP_temperature;BMP_pressure;BME280_temperature;BME280_humidity;BME280_pressure;Samples;Min_cycle;Max_cycle;Signal;HPM_P1;HPM_P2
2022/03/18 00:00:45;;;;;;;19.45;5.85;;;3.70;99.90;;;;;;4929884;28;121374;-76
2022/03/18 00:03:11;;;;;;;18.40;6.05;;;3.70;99.90;;;;;;4974366;28;20053;-76
2022/03/18 00:05:37;;;;;;;24.48;6.35;;;3.80;99.90;;;;;;4940345;28;145845;-76
2022/03/18 00:08:04;;;;;;;21.40;6.05;;;3.80;99.90;;;;;;4980365;28;20515;-76
2022/03/18 00:10:31;;;;;;;20.10;6.47;;;3.80;99.90;;;;;;4966602;28;42299;-75
2022/03/18 00:12:58;;;;;;;22.48;6.97;;;3.80;99.90;;;;;;4982983;28;20639;-75
2022/03/18 00:15:24;;;;;;;16.63;6.18;;;3.80;99.90;;;;;;4921713;28;77976;-76
2022/03/18 00:17:51;;;;;;;22.40;6.63;;;3.80;99.90;;;;;;4999891;28;20042;-75
2022/03/18 00:20:18;;;;;;;18.52;6.57;;;3.80;99.90;;;;;;4955221;28;206915;-76
2022/03/18 00:22:45;;;;;;;23.48;7.25;;;3.80;99.90;;;;;;4975554;28;20072;-76
2022/03/18 00:25:13;;;;;;;22.65;7.28;;;3.80;99.90;;;;;;4930651;28;91509;-76
2022/03/18 00:27:42;;;;;;;22.42;8.05;;;3.80;99.90;;;;;;4977766;28;20058;-76
2022/03/18 00:30:13;;;;;;;18.98;7.05;;;3.80;99.90;;;;;;4933649;28;44919;-79
2022/03/18 00:32:40;;;;;;;24.95;7.55;;;3.80;99.90;;;;;;4976902;28;20058;-75
2022/03/18 00:35:10;;;;;;;22.67;7.75;;;3.80;99.90;;;;;;4948451;28;150883;-77
2022/03/18 00:37:38;;;;;;;23.23;6.97;;;3.70;99.90;;;;;;4990116;28;20057;-75
2022/03/18 00:40:09;;;;;;;25.30;7.90;;;3.70;99.90;;;;;;4932769;28;231977;-76
2022/03/18 00:42:35;;;;;;;23.93;7.47;;;3.70;99.90;;;;;;4987289;28;20578;-76
2022/03/18 00:45:04;;;;;;;21.58;7.72;;;3.70;99.90;;;;;;4942726;28;54663;-75
2022/03/18 00:53:00;;;;;;;23.02;7.43;;;3.60;99.90;;;;;;4983111;28;20110;-75
2022/03/18 00:55:26;;;;;;;22.88;8.00;;;3.60;99.90;;;;;;4915950;28;49324;-75
2022/03/18 00:57:52;;;;;;;22.38;8.30;;;3.60;99.90;;;;;;4961186;28;20051;-76
2022/03/18 01:00:18;;;;;;;27.58;8.20;;;3.50;99.90;;;;;;4934083;28;104760;-75
2022/03/18 01:02:45;;;;;;;23.20;8.10;;;3.50;99.90;;;;;;4958646;28;20050;-76
2022/03/18 01:05:11;;;;;;;21.02;8.07;;;3.50;99.90;;;;;;4937860;28;259057;-76
2022/03/18 01:07:37;;;;;;;26.77;8.90;;;3.50;99.90;;;;;;4976237;28;20054;-76
2022/03/18 01:10:04;;;;;;;22.98;8.18;;;3.40;99.90;;;;;;4934856;28;175366;-75
2022/03/18 01:12:30;;;;;;;21.80;7.95;;;3.40;99.90;;;;;;4974869;28;20519;-76
2022/03/18 01:14:56;;;;;;;23.33;8.38;;;3.40;99.90;;;;;;4949573;28;204019;-76
2022/03/18 01:17:22;;;;;;;20.88;8.73;;;3.40;99.90;;;;;;4988250;28;20045;-75
2022/03/18 01:19:48;;;;;;;22.73;8.48;;;3.40;99.90;;;;;;4942596;28;180411;-75
2022/03/18 01:22:14;;;;;;;21.00;8.77;;;3.40;99.90;;;;;;4974188;28;20054;-74
2022/03/18 01:24:41;;;;;;;22.58;9.02;;;3.40;99.90;;;;;;4941328;28;48341;-75
2022/03/18 01:27:07;;;;;;;25.38;9.48;;;3.50;99.90;;;;;;4984731;28;20057;-74
2022/03/18 01:29:34;;;;;;;25.13;10.07;;;3.40;99.90;;;;;;4933056;28;128002;-75
2022/03/18 01:32:00;;;;;;;20.80;9.18;;;3.40;99.90;;;;;;4951434;28;20050;-76
2022/03/18 01:34:26;;;;;;;25.35;9.75;;;3.40;99.90;;;;;;4940175;28;211083;-76
2022/03/18 01:36:53;;;;;;;28.65;10.20;;;3.40;99.90;;;;;;4960310;28;20053;-76
2022/03/18 01:39:19;;;;;;;30.17;10.90;;;3.40;99.90;;;;;;4966849;28;173442;-76
2022/03/18 01:41:45;;;;;;;24.58;10.60;;;3.50;99.90;;;;;;4974207;28;20851;-75
2022/03/18 01:44:12;;;;;;;23.08;10.00;;;3.50;99.90;;;;;;4974549;28;253029;-75
2022/03/18 01:46:39;;;;;;;27.70;10.60;;;3.50;99.90;;;;;;4967195;28;20046;-77
2022/03/18 01:49:06;;;;;;;25.67;10.73;;;3.50;99.90;;;;;;4965074;28;270337;-76
2022/03/18 01:51:33;;;;;;;23.98;10.90;;;3.50;99.90;;;;;;4954966;28;20057;-77
2022/03/18 01:56:44;;;;;;;26.35;10.93;;;3.50;99.90;;;;;;4924978;28;20491;-75
2022/03/18 01:59:13;;;;;;;25.98;11.10;;;3.60;99.90;;;;;;4968634;28;253391;-74
2022/03/18 02:01:40;;;;;;;22.73;10.13;;;3.50;99.90;;;;;;4950095;28;20041;-77
2022/03/18 02:04:06;;;;;;;25.20;10.93;;;3.60;99.90;;;;;;4934807;28;267289;-76
2022/03/18 02:06:33;;;;;;;32.50;11.32;;;3.50;99.90;;;;;;4934773;28;20037;-76
2022/03/18 02:08:59;;;;;;;30.13;10.63;;;3.50;99.90;;;;;;4966815;28;244889;-76
2022/03/18 02:11:26;;;;;;;26.35;10.77;;;3.50;99.90;;;;;;4957672;28;20054;-76
2022/03/18 02:13:56;;;;;;;31.35;10.70;;;3.40;99.90;;;;;;4978851;28;265798;-75
2022/03/18 02:16:22;;;;;;;27.58;10.57;;;3.40;99.90;;;;;;4963809;28;20055;-75
2022/03/18 02:18:49;;;;;;;23.40;11.00;;;3.40;99.90;;;;;;4966294;28;264920;-76
2022/03/18 02:21:15;;;;;;;25.20;10.68;;;3.40;99.90;;;;;;4954177;28;20045;-75
2022/03/18 02:23:43;;;;;;;29.05;11.88;;;3.40;99.90;;;;;;4981097;28;20046;-76
2022/03/18 02:26:13;;;;;;;26.02;11.07;;;3.40;99.90;;;;;;4918720;28;181974;-75
2022/03/18 02:28:40;;;;;;;23.90;10.73;;;3.40;99.90;;;;;;4981194;28;20050;-76
2022/03/18 02:31:06;;;;;;;21.67;9.80;;;3.40;99.90;;;;;;4961895;28;242918;-76
2022/03/18 02:33:32;;;;;;;25.60;10.60;;;3.40;99.90;;;;;;4967025;28;20061;-76
2022/03/18 02:35:58;;;;;;;25.33;10.85;;;3.40;99.90;;;;;;4918086;28;225260;-76
2022/03/18 02:38:24;;;;;;;25.33;10.73;;;3.40;99.90;;;;;;4959432;28;20262;-78
2022/03/18 02:40:50;;;;;;;24.08;10.75;;;3.50;99.90;;;;;;4928352;28;36418;-75
2022/03/18 02:43:17;;;;;;;25.48;11.13;;;3.40;99.90;;;;;;4979893;28;20503;-76
2022/03/18 02:45:43;;;;;;;26.60;10.60;;;3.40;99.90;;;;;;4906397;28;196653;-75
2022/03/18 02:48:09;;;;;;;34.42;10.98;;;3.40;99.90;;;;;;4976108;28;20046;-75
2022/03/18 02:50:35;;;;;;;22.75;10.20;;;3.40;99.90;;;;;;4930579;28;177257;-75
2022/03/18 02:53:02;;;;;;;25.10;10.43;;;3.30;99.90;;;;;;4973175;28;20301;-75
2022/03/18 02:55:28;;;;;;;22.45;10.65;;;3.30;99.90;;;;;;4922229;28;20122;-76
2022/03/18 02:57:54;;;;;;;22.77;9.85;;;3.30;99.90;;;;;;4959046;28;20062;-76
2022/03/18 03:00:25;;;;;;;25.23;10.45;;;3.20;99.90;;;;;;4926611;28;271505;-77
2022/03/18 03:02:52;;;;;;;20.23;9.68;;;3.30;99.90;;;;;;4952185;28;20049;-76
2022/03/18 03:08:03;;;;;;;30.08;10.30;;;3.20;99.90;;;;;;4980614;28;20049;-76
2022/03/18 03:10:34;;;;;;;26.20;10.63;;;3.20;99.90;;;;;;4935890;28;177109;-76
2022/03/18 03:13:03;;;;;;;26.80;10.73;;;3.20;99.90;;;;;;4980060;28;20113;-76
2022/03/18 03:15:30;;;;;;;26.10;10.18;;;3.20;99.90;;;;;;4923966;28;221538;-76
2022/03/18 03:17:56;;;;;;;29.63;10.40;;;3.20;99.90;;;;;;4982734;28;20531;-76
2022/03/18 03:20:22;;;;;;;26.83;10.98;;;3.10;99.90;;;;;;4932897;28;167841;-75
2022/03/18 03:22:48;;;;;;;24.15;10.43;;;3.20;99.90;;;;;;4983230;28;21227;-76
2022/03/18 03:25:14;;;;;;;21.40;10.55;;;3.10;99.90;;;;;;4941078;28;177261;-76
2022/03/18 03:27:41;;;;;;;23.88;11.00;;;3.10;99.90;;;;;;4978914;28;20049;-77
2022/03/18 03:30:09;;;;;;;25.60;11.52;;;3.10;99.90;;;;;;4918382;28;46206;-75
2022/03/18 03:32:36;;;;;;;25.70;10.82;;;3.20;99.90;;;;;;4960521;28;20050;-76
2022/03/18 03:35:05;;;;;;;26.63;11.02;;;3.10;99.90;;;;;;4933730;28;20049;-76
2022/03/18 03:37:31;;;;;;;22.98;10.65;;;3.10;99.90;;;;;;4974815;28;20104;-76
2022/03/18 03:39:57;;;;;;;21.85;10.68;;;3.10;99.90;;;;;;4927327;28;204066;-76
2022/03/18 03:42:23;;;;;;;27.23;11.27;;;3.00;99.90;;;;;;4969603;28;20058;-77
2022/03/18 03:44:49;;;;;;;27.88;11.90;;;3.00;99.90;;;;;;4953165;28;121391;-78
2022/03/18 03:47:16;;;;;;;25.67;11.10;;;3.10;99.90;;;;;;4965700;28;20073;-76
2022/03/18 03:49:42;;;;;;;23.73;11.40;;;3.10;99.90;;;;;;4937749;28;20053;-76
2022/03/18 03:52:08;;;;;;;28.30;12.02;;;3.10;99.90;;;;;;4981402;28;20061;-76
2022/03/18 03:54:37;;;;;;;25.13;11.77;;;3.00;99.90;;;;;;4945481;28;20057;-76
2022/03/18 03:57:04;;;;;;;26.15;12.18;;;3.00;99.90;;;;;;4970069;28;20054;-76
2022/03/18 03:59:30;;;;;;;27.30;12.02;;;3.00;99.90;;;;;;4940896;28;180393;-76
2022/03/18 04:01:57;;;;;;;21.02;11.57;;;3.00;99.90;;;;;;4979980;28;20062;-76
2022/03/18 04:04:24;;;;;;;25.33;11.18;;;2.90;99.90;;;;;;4925669;28;148912;-76
2022/03/18 04:06:50;;;;;;;24.67;12.05;;;2.90;99.90;;;;;;4981359;28;20054;-76
2022/03/18 04:09:16;;;;;;;25.13;11.45;;;2.90;99.90;;;;;;4991422;28;208732;-76
2022/03/18 04:11:42;;;;;;;27.30;11.55;;;2.90;99.90;;;;;;4958261;28;20053;-75
2022/03/18 04:14:08;;;;;;;22.25;11.25;;;2.90;99.90;;;;;;4953495;28;256996;-76
2022/03/18 04:16:35;;;;;;;26.45;11.63;;;2.90;99.90;;;;;;4925714;28;20050;-77
2022/03/18 04:19:03;;;;;;;21.60;11.57;;;2.90;99.90;;;;;;4968544;28;255303;-75
2022/03/18 04:21:29;;;;;;;27.58;11.48;;;2.80;99.90;;;;;;4946751;28;20053;-76
2022/03/18 04:23:56;;;;;;;27.02;12.07;;;2.80;99.90;;;;;;4967743;28;259037;-75
2022/03/18 04:26:22;;;;;;;27.70;12.30;;;2.80;99.90;;;;;;4946189;28;20362;-76
2022/03/18 04:28:48;;;;;;;24.50;12.02;;;2.80;99.90;;;;;;4966016;28;256545;-75
2022/03/18 04:31:14;;;;;;;22.10;11.88;;;2.80;99.90;;;;;;4964042;28;20049;-76
2022/03/18 04:33:40;;;;;;;22.27;12.25;;;2.80;99.90;;;;;;4983776;28;20050;-75
2022/03/18 04:36:07;;;;;;;25.92;12.30;;;2.80;99.90;;;;;;4943993;28;53449;-75
2022/03/18 04:38:33;;;;;;;24.33;12.10;;;2.70;99.90;;;;;;4966296;28;20055;-75
2022/03/18 04:40:59;;;;;;;27.88;12.43;;;2.70;99.90;;;;;;4919370;28;233402;-75
2022/03/18 04:43:25;;;;;;;28.38;12.05;;;2.80;99.90;;;;;;4964770;28;20598;-76
2022/03/18 04:45:51;;;;;;;26.35;12.55;;;2.70;99.90;;;;;;4926634;28;177744;-77
2022/03/18 04:48:17;;;;;;;27.88;12.43;;;2.70;99.90;;;;;;4983123;28;20439;-75
2022/03/18 04:50:44;;;;;;;23.13;12.55;;;2.70;99.90;;;;;;4971159;28;111489;-75
2022/03/18 04:53:10;;;;;;;33.75;12.45;;;2.60;99.90;;;;;;4987844;28;20058;-76
2022/03/18 04:55:36;;;;;;;25.77;11.82;;;2.60;99.90;;;;;;4943540;28;122158;-75
2022/03/18 04:58:02;;;;;;;22.88;12.27;;;2.50;99.90;;;;;;4979464;28;20050;-75
2022/03/18 05:00:28;;;;;;;30.40;12.75;;;2.50;99.90;;;;;;4927048;28;243630;-75
2022/03/18 05:02:57;;;;;;;21.95;11.38;;;2.50;99.90;;;;;;4978574;28;20050;-75
2022/03/18 05:05:23;;;;;;;19.73;11.23;;;2.40;99.90;;;;;;4904313;28;248714;-76
2022/03/18 05:07:51;;;;;;;22.30;11.68;;;2.40;99.90;;;;;;4980196;28;20051;-75
2022/03/18 05:10:18;;;;;;;22.42;11.40;;;2.40;99.90;;;;;;4928478;28;75681;-75
2022/03/18 05:12:44;;;;;;;20.27;11.48;;;2.30;99.90;;;;;;4971511;28;20065;-75
2022/03/18 05:15:11;;;;;;;26.55;12.55;;;2.20;99.90;;;;;;4920248;28;113623;-75
2022/03/18 05:17:38;;;;;;;26.13;13.18;;;2.20;99.90;;;;;;4975944;28;20057;-76
2022/03/18 05:20:06;;;;;;;28.00;12.50;;;2.20;99.90;;;;;;4933632;28;53511;-75
2022/03/18 05:22:33;;;;;;;26.60;12.18;;;2.20;99.90;;;;;;4974544;28;20047;-76
2022/03/18 05:24:59;;;;;;;21.80;11.45;;;2.10;99.90;;;;;;4953984;28;237145;-76
2022/03/18 05:27:25;;;;;;;24.15;11.68;;;2.10;99.90;;;;;;4979188;28;20522;-76
2022/03/18 05:29:52;;;;;;;26.73;11.60;;;2.10;99.90;;;;;;4934491;28;27524;-76
2022/03/18 05:32:18;;;;;;;22.05;12.27;;;2.10;99.90;;;;;;4965032;28;20951;-76
2022/03/18 05:34:45;;;;;;;26.98;13.32;;;2.10;99.90;;;;;;4923690;28;130843;-77
2022/03/18 05:37:11;;;;;;;25.83;13.48;;;2.00;99.90;;;;;;4976262;28;20050;-77
2022/03/18 05:39:38;;;;;;;24.42;12.95;;;2.00;99.90;;;;;;4945890;28;21553;-76
2022/03/18 05:42:04;;;;;;;25.60;12.55;;;2.00;99.90;;;;;;4985076;28;20046;-75
2022/03/18 05:44:31;;;;;;;23.63;12.98;;;2.00;99.90;;;;;;4945805;28;20519;-75
2022/03/18 05:46:57;;;;;;;27.33;13.13;;;2.00;99.90;;;;;;4980070;28;20522;-75
2022/03/18 05:49:23;;;;;;;26.90;14.10;;;2.00;99.90;;;;;;4954667;28;24031;-76
2022/03/18 05:51:50;;;;;;;25.92;13.23;;;2.00;99.90;;;;;;4969459;28;20061;-76
2022/03/18 05:54:16;;;;;;;29.40;13.65;;;2.00;99.90;;;;;;4974909;28;233245;-76
2022/03/18 05:56:54;;;;;;;24.10;14.40;;;1.90;99.90;;;;;;4936785;28;20057;-77
2022/03/18 05:59:24;;;;;;;26.08;14.73;;;2.00;99.90;;;;;;4949214;28;238519;-76
2022/03/18 06:01:53;;;;;;;23.52;12.75;;;2.00;99.90;;;;;;4985626;28;20058;-76
2022/03/18 06:04:20;;;;;;;24.45;13.38;;;2.00;99.90;;;;;;4942855;28;248848;-75
2022/03/18 06:06:47;;;;;;;24.77;14.38;;;2.00;99.90;;;;;;4954043;28;20053;-76
2022/03/18 06:12:01;;;;;;;23.08;14.25;;;2.00;99.90;;;;;;4950910;28;20045;-75
2022/03/18 06:14:29;;;;;;;26.50;14.55;;;2.00;99.90;;;;;;4938496;28;263805;-76
2022/03/18 06:16:57;;;;;;;28.13;15.23;;;2.00;99.90;;;;;;4972844;28;20050;-75
2022/03/18 06:19:25;;;;;;;28.63;16.08;;;2.00;99.90;;;;;;4937896;28;275681;-76
2022/03/18 06:21:51;;;;;;;27.38;14.95;;;2.00;99.90;;;;;;4981522;28;20049;-75
2022/03/18 06:24:21;;;;;;;28.98;15.50;;;2.00;99.90;;;;;;4977654;28;155800;-75
2022/03/18 06:26:48;;;;;;;29.60;16.13;;;2.10;99.90;;;;;;4978968;28;20057;-76
2022/03/18 06:29:15;;;;;;;26.05;15.30;;;2.10;99.90;;;;;;4971460;28;33712;-75
2022/03/18 06:31:41;;;;;;;30.25;16.33;;;2.10;99.90;;;;;;4942102;28;20061;-77
2022/03/18 06:34:09;;;;;;;25.80;15.23;;;2.10;99.90;;;;;;4966265;28;255191;-77
2022/03/18 06:36:36;;;;;;;27.95;15.95;;;2.20;99.90;;;;;;4927923;28;20043;-76
2022/03/18 06:39:03;;;;;;;35.33;16.90;;;2.20;99.90;;;;;;4962413;28;250056;-77
2022/03/18 06:41:31;;;;;;;30.00;16.73;;;2.30;99.90;;;;;;4969842;28;20042;-76
2022/03/18 06:43:58;;;;;;;29.93;17.63;;;2.30;99.90;;;;;;4946824;28;272019;-75
2022/03/18 06:46:25;;;;;;;35.40;19.23;;;2.40;99.90;;;;;;4947331;28;20045;-76
2022/03/18 06:48:51;;;;;;;29.83;18.30;;;2.40;99.90;;;;;;4976891;28;257468;-75
2022/03/18 06:51:17;;;;;;;30.80;18.63;;;2.50;99.90;;;;;;4969740;28;20118;-76
2022/03/18 06:53:44;;;;;;;33.72;18.35;;;2.60;99.90;;;;;;4996811;28;20066;-76
2022/03/18 06:56:12;;;;;;;28.58;18.50;;;2.70;99.90;;;;;;4925678;28;243741;-76
2022/03/18 06:58:38;;;;;;;29.73;18.13;;;2.70;99.90;;;;;;4981053;28;20074;-76
2022/03/18 07:01:04;;;;;;;32.42;19.45;;;2.80;99.90;;;;;;4909000;28;54530;-77
2022/03/18 07:03:30;;;;;;;39.88;20.42;;;2.80;99.90;;;;;;4964750;28;20519;-76
2022/03/18 07:05:57;;;;;;;44.90;20.65;;;2.90;99.90;;;;;;4921768;28;189593;-76
2022/03/18 07:08:23;;;;;;;51.13;21.00;;;3.00;99.90;;;;;;4965733;28;20054;-76
2022/03/18 07:10:49;;;;;;;37.72;20.05;;;3.00;99.90;;;;;;4943306;28;261672;-79
2022/03/18 07:13:16;;;;;;;31.30;19.52;;;3.10;99.90;;;;;;4987109;28;20138;-77
2022/03/18 07:15:43;;;;;;;34.65;20.20;;;3.10;99.90;;;;;;4943795;28;23286;-78
2022/03/18 07:18:09;;;;;;;34.30;20.15;;;3.20;99.90;;;;;;4984673;28;20042;-77
2022/03/18 07:20:38;;;;;;;39.40;21.88;;;3.20;99.90;;;;;;4962034;28;261062;-77
2022/03/18 07:23:12;;;;;;;39.33;20.80;;;3.40;99.90;;;;;;4986258;28;20538;-79
2022/03/18 07:25:43;;;;;;;36.90;21.10;;;3.40;99.90;;;;;;4916346;28;46514;-77
2022/03/18 07:28:14;;;;;;;33.50;21.83;;;3.50;99.90;;;;;;4971884;28;20504;-77
2022/03/18 07:30:42;;;;;;;32.33;21.77;;;3.60;99.90;;;;;;4955243;28;119017;-78
2022/03/18 07:33:09;;;;;;;37.08;23.05;;;3.70;99.90;;;;;;4985811;28;20538;-79
2022/03/18 07:35:37;;;;;;;42.67;22.00;;;3.70;99.90;;;;;;4925227;28;191178;-78
2022/03/18 07:38:07;;;;;;;38.28;22.27;;;3.80;99.90;;;;;;4967461;28;20042;-78
2022/03/18 07:40:33;;;;;;;43.90;23.95;;;3.90;99.90;;;;;;4947245;28;55550;-78
2022/03/18 07:42:59;;;;;;;42.33;22.67;;;4.00;99.90;;;;;;4999301;28;20419;-77
2022/03/18 07:45:30;;;;;;;42.63;24.25;;;4.10;99.90;;;;;;4930524;28;231529;-78
2022/03/18 07:48:05;;;;;;;46.20;23.50;;;4.20;99.90;;;;;;4990867;28;20054;-77
2022/03/18 07:50:34;;;;;;;50.42;24.33;;;4.30;99.90;;;;;;4958007;28;26783;-77
2022/03/18 07:53:05;;;;;;;51.10;24.63;;;4.40;99.90;;;;;;4996018;28;20574;-76
2022/03/18 07:55:32;;;;;;;;;;;4.50;99.90;;;;;;4929408;28;200435;-79
2022/03/18 07:57:58;;;;;;;39.00;23.90;;;4.60;99.90;;;;;;4968476;28;19928;-77
2022/03/18 08:00:25;;;;;;;39.22;23.88;;;4.70;99.90;;;;;;4926862;28;185523;-75
2022/03/18 08:02:52;;;;;;;38.13;22.92;;;4.80;99.90;;;;;;4973594;28;20046;-76
2022/03/18 08:05:20;;;;;;;41.92;23.85;;;4.90;99.90;;;;;;4933277;28;144001;-75
2022/03/18 08:07:47;;;;;;;37.28;21.88;;;5.00;99.90;;;;;;5012496;28;20034;-76
2022/03/18 08:10:14;;;;;;;37.85;23.90;;;5.10;99.90;;;;;;4953274;28;262437;-75
2022/03/18 08:12:42;;;;;;;32.22;22.08;;;5.30;99.90;;;;;;4962243;28;20053;-78
2022/03/18 08:15:09;;;;;;;40.50;24.17;;;5.40;99.90;;;;;;4957557;28;253091;-76
2022/03/18 08:17:38;;;;;;;39.63;24.75;;;5.50;99.90;;;;;;4997343;28;20046;-76
2022/03/18 08:20:06;;;;;;;37.72;24.23;;;5.80;99.90;;;;;;4928626;28;247281;-76
2022/03/18 08:22:32;;;;;;;35.83;23.48;;;6.00;99.90;;;;;;4991620;28;20042;-76
2022/03/18 08:24:58;;;;;;;44.15;23.23;;;6.20;99.90;;;;;;4964234;28;122397;-76
2022/03/18 08:27:24;;;;;;;34.92;21.02;;;6.40;99.90;;;;;;4972512;28;20046;-76
2022/03/18 08:29:53;;;;;;;34.63;21.90;;;6.70;99.90;;;;;;4938946;28;91717;-77
2022/03/18 08:32:19;;;;;;;35.70;20.17;;;7.10;99.90;;;;;;4976085;28;20424;-76
2022/03/18 08:34:45;;;;;;;30.38;17.77;;;7.70;99.90;;;;;;4935523;28;119759;-77
2022/03/18 08:37:11;;;;;;;30.08;15.18;;;8.40;99.90;;;;;;4974679;28;20415;-76
2022/03/18 08:39:38;;;;;;;25.67;13.63;;;9.20;99.90;;;;;;4939941;28;21127;-76
2022/03/18 08:42:05;;;;;;;30.95;13.20;;;10.10;99.90;;;;;;4964735;28;20405;-77
2022/03/18 08:44:31;;;;;;;24.88;11.98;;;10.70;99.90;;;;;;4947563;28;22425;-76
2022/03/18 08:46:57;;;;;;;23.35;11.32;;;11.30;99.90;;;;;;4971387;28;20058;-76
2022/03/18 08:49:24;;;;;;;24.25;10.75;;;11.80;99.90;;;;;;4947001;28;64863;-76
2022/03/18 08:51:50;;;;;;;26.83;11.35;;;12.10;99.90;;;;;;4995533;28;20065;-75
2022/03/18 08:54:21;;;;;;;22.92;9.63;;;12.60;99.90;;;;;;4968217;28;57765;-76
2022/03/18 08:56:48;;;;;;;22.45;10.10;;;12.80;99.90;;;;;;4933972;28;20042;-75
2022/03/18 08:59:15;;;;;;;24.80;10.80;;;13.20;99.90;;;;;;4965307;28;186136;-76
2022/03/18 09:01:41;;;;;;;23.48;9.02;;;13.60;99.90;;;;;;4949307;28;20041;-75
2022/03/18 09:04:07;;;;;;;21.02;8.75;;;13.80;99.90;;;;;;4952684;28;261774;-75
2022/03/18 09:06:34;;;;;;;20.65;7.90;;;14.20;99.90;;;;;;4936008;28;20054;-75
2022/03/18 09:09:03;;;;;;;21.57;7.87;;;14.60;99.90;;;;;;4968775;28;223419;-76
2022/03/18 09:11:30;;;;;;;18.88;7.20;;;15.00;99.90;;;;;;4970819;28;20438;-76
2022/03/18 09:13:56;;;;;;;21.65;7.38;;;15.40;99.90;;;;;;4969440;28;248816;-76
2022/03/18 09:16:22;;;;;;;20.33;7.53;;;15.50;99.90;;;;;;4956543;28;20129;-76
2022/03/18 09:18:48;;;;;;;22.10;7.18;;;15.70;99.90;;;;;;4983500;28;279979;-75
2022/03/18 09:21:14;;;;;;;20.45;6.97;;;15.60;99.90;;;;;;4947897;28;20047;-74
2022/03/18 09:23:41;;;;;;;20.52;7.45;;;15.60;99.90;;;;;;4983912;28;20504;-75
2022/03/18 09:26:08;;;;;;;19.70;7.10;;;15.90;99.90;;;;;;4957246;28;272570;-76
2022/03/18 09:28:34;;;;;;;25.30;8.52;;;15.90;99.90;;;;;;4987980;28;20049;-75
2022/03/18 09:31:01;;;;;;;19.73;7.47;;;16.20;99.90;;;;;;4910957;28;96254;-75
2022/03/18 09:33:27;;;;;;;22.65;7.40;;;16.60;99.90;;;;;;4983496;28;20337;-74
2022/03/18 09:35:53;;;;;;;19.38;7.28;;;16.80;99.90;;;;;;4955586;28;199063;-73
2022/03/18 09:38:19;;;;;;;22.08;7.10;;;16.70;99.90;;;;;;5005294;28;20409;-73
2022/03/18 09:40:46;;;;;;;17.35;6.63;;;16.90;99.50;;;;;;4948568;28;68229;-73
2022/03/18 09:43:14;;;;;;;22.70;7.50;;;17.40;99.90;;;;;;4986031;28;20061;-72
2022/03/18 09:45:41;;;;;;;21.58;7.70;;;17.70;99.00;;;;;;4937492;28;67285;-73
2022/03/18 09:48:09;;;;;;;22.35;8.20;;;18.00;98.40;;;;;;4984356;28;20476;-72
2022/03/18 09:50:37;;;;;;;21.15;7.93;;;18.20;98.10;;;;;;4962339;28;266123;-73
2022/03/18 09:53:04;;;;;;;19.65;7.25;;;18.40;97.60;;;;;;4995404;28;20057;-73
2022/03/18 09:55:34;;;;;;;16.05;6.13;;;18.80;97.60;;;;;;4961870;28;270834;-73
2022/03/18 09:58:01;;;;;;;15.68;6.15;;;19.10;96.30;;;;;;4988362;28;20054;-72
2022/03/18 10:00:27;;;;;;;22.05;6.50;;;19.50;96.40;;;;;;4953511;28;264756;-74
2022/03/18 10:03:16;;;;;;;20.95;6.55;;;19.80;94.90;;;;;;4965445;28;20070;-72
2022/03/18 10:06:04;;;;;;;15.00;5.75;;;20.40;93.60;;;;;;4923563;28;115709;-73
2022/03/18 10:08:37;;;;;;;17.17;5.57;;;20.90;93.00;;;;;;4988058;28;20065;-74
2022/03/18 10:11:16;;;;;;;16.95;5.90;;;21.10;88.10;;;;;;4948497;28;266004;-74
2022/03/18 10:13:56;;;;;;;17.92;6.35;;;21.30;83.70;;;;;;4988467;28;20034;-73
2022/03/18 10:16:36;;;;;;;16.50;6.00;;;21.50;81.00;;;;;;4953280;28;20049;-73
2022/03/18 10:19:09;;;;;;;16.05;6.05;;;21.70;78.70;;;;;;4974572;28;243641;-73
2022/03/18 10:22:11;;;;;;;16.60;6.25;;;21.40;77.40;;;;;;4955644;28;20034;-73
2022/03/18 10:24:39;;;;;;;19.25;6.00;;;21.80;75.30;;;;;;4894183;28;240110;-72
2022/03/18 10:27:15;;;;;;;17.38;6.13;;;22.20;74.80;;;;;;4942232;28;20056;-74
2022/03/18 10:29:47;;;;;;;18.40;6.20;;;22.30;73.80;;;;;;4873282;29;162230;-75
2022/03/18 10:32:15;;;;;;;17.08;5.60;;;22.60;72.40;;;;;;4901483;28;20105;-75
2022/03/18 10:37:49;;;;;;;16.05;6.10;;;23.10;66.20;;;;;;4932372;28;20206;-75
2022/03/18 10:40:30;;;;;;;14.85;5.68;;;22.90;60.10;;;;;;4894262;28;152175;-75
2022/03/18 10:42:57;;;;;;;18.48;6.53;;;22.50;65.70;;;;;;4931352;28;20055;-75
2022/03/18 10:45:24;;;;;;;19.58;6.28;;;22.50;63.90;;;;;;4896716;28;20271;-74
2022/03/18 10:47:52;;;;;;;13.65;5.50;;;22.30;61.40;;;;;;4932170;28;20457;-72
2022/03/18 10:50:29;;;;;;;16.27;5.53;;;22.20;63.10;;;;;;4882150;28;232926;-76
2022/03/18 10:53:07;;;;;;;17.55;5.65;;;22.50;63.10;;;;;;4917743;28;20058;-78
2022/03/18 10:55:43;;;;;;;19.30;6.30;;;22.80;61.20;;;;;;4871030;29;168116;-77
2022/03/18 10:58:12;;;;;;;17.95;6.30;;;22.90;58.90;;;;;;4942554;28;20046;-76
2022/03/18 11:00:41;;;;;;;15.80;5.68;;;22.50;59.20;;;;;;4959312;28;52862;-76
2022/03/18 11:03:07;;;;;;;16.92;5.60;;;22.30;60.00;;;;;;4998608;28;20026;-78
2022/03/18 11:05:41;;;;;;;15.60;5.57;;;22.60;58.30;;;;;;4934896;28;141924;-79
2022/03/18 11:08:11;;;;;;;17.50;5.63;;;22.40;58.50;;;;;;4974170;28;20054;-76
2022/03/18 11:13:29;;;;;;;17.60;5.57;;;22.40;57.00;;;;;;4990221;28;20515;-74
2022/03/18 11:15:56;;;;;;;18.30;5.68;;;22.60;58.20;;;;;;4918704;28;225830;-75
2022/03/18 11:18:28;;;;;;;18.58;5.10;;;22.50;56.20;;;;;;4967390;28;20050;-76
2022/03/18 11:20:56;;;;;;;15.43;5.40;;;22.70;56.80;;;;;;4935373;28;118442;-78
2022/03/18 11:23:23;;;;;;;14.98;4.60;;;22.30;55.90;;;;;;4985802;28;20047;-76
2022/03/18 11:25:54;;;;;;;14.93;4.78;;;22.60;56.40;;;;;;4956815;28;192663;-76
2022/03/18 11:28:21;;;;;;;17.00;4.90;;;22.70;54.40;;;;;;4997759;28;20051;-75
2022/03/18 11:30:48;;;;;;;16.02;6.00;;;22.90;54.20;;;;;;4942608;28;30825;-75
2022/03/18 11:33:14;;;;;;;13.90;5.10;;;23.30;55.30;;;;;;4998436;28;20053;-78
2022/03/18 11:35:52;;;;;;;15.73;4.88;;;24.00;54.30;;;;;;4961732;28;174410;-77
2022/03/18 11:38:30;;;;;;;18.00;5.75;;;24.70;51.90;;;;;;5003925;28;20089;-76
2022/03/18 11:40:58;;;;;;;14.88;4.60;;;23.70;49.40;;;;;;4962927;28;33380;-76
2022/03/18 11:43:51;;;;;;;13.25;4.38;;;23.70;52.70;;;;;;5002514;28;20042;-74
2022/03/18 11:46:20;;;;;;;16.77;5.05;;;24.10;51.70;;;;;;4955440;28;20050;-75
2022/03/18 11:49:10;;;;;;;15.25;5.15;;;24.60;51.80;;;;;;4974896;28;255515;-73
2022/03/18 11:51:42;;;;;;;11.82;4.05;;;24.60;47.80;;;;;;4986672;28;20049;-74
2022/03/18 11:54:16;;;;;;;14.02;4.20;;;24.20;49.20;;;;;;4968535;28;264401;-75
2022/03/18 11:56:52;;;;;;;15.43;4.53;;;24.00;48.70;;;;;;4945738;28;20101;-76
2022/03/18 11:59:33;;;;;;;15.05;4.75;;;24.30;48.10;;;;;;4956049;28;261325;-73
2022/03/18 12:02:07;;;;;;;15.82;4.68;;;24.50;48.10;;;;;;4958428;28;20050;-75
2022/03/18 12:04:36;;;;;;;13.98;4.50;;;24.80;48.70;;;;;;4928083;28;252247;-75
2022/03/18 12:07:34;;;;;;;14.95;5.05;;;24.50;47.70;;;;;;4990009;28;20065;-77
2022/03/18 12:10:04;;;;;;;16.55;4.28;;;25.00;46.30;;;;;;4926777;28;53744;-75
2022/03/18 12:12:40;;;;;;;14.05;4.47;;;25.20;46.80;;;;;;4975656;28;20118;-75
2022/03/18 12:15:12;;;;;;;12.45;3.88;;;25.50;44.40;;;;;;4937890;28;246101;-75
2022/03/18 12:17:46;;;;;;;14.65;4.43;;;25.10;45.70;;;;;;4981987;28;20058;-75
2022/03/18 12:20:22;;;;;;;13.18;4.00;;;24.70;45.40;;;;;;4936315;28;269753;-74
2022/03/18 12:22:51;;;;;;;13.10;4.13;;;23.80;45.60;;;;;;4978684;28;20046;-73
2022/03/18 12:25:20;;;;;;;14.43;4.05;;;23.30;46.30;;;;;;4939314;28;266231;-75
2022/03/18 12:27:47;;;;;;;12.90;3.60;;;23.70;46.60;;;;;;4980361;28;20542;-74
2022/03/18 12:30:21;;;;;;;18.88;4.22;;;23.80;47.10;;;;;;4943410;28;210297;-74
2022/03/18 12:32:51;;;;;;;14.07;3.95;;;24.00;45.70;;;;;;4989816;28;20054;-74
2022/03/18 12:35:19;;;;;;;14.13;4.07;;;23.80;46.30;;;;;;4939581;28;274834;-75
2022/03/18 12:37:46;;;;;;;15.77;4.05;;;24.20;46.00;;;;;;4991447;28;20061;-73
2022/03/18 12:40:15;;;;;;;14.10;4.05;;;23.60;46.10;;;;;;4935654;28;273365;-73
2022/03/18 12:42:47;;;;;;;13.68;3.83;;;22.70;46.20;;;;;;4985749;28;20479;-73
2022/03/18 12:45:23;;;;;;;14.00;3.67;;;22.20;46.80;;;;;;4951353;28;163282;-72
2022/03/18 12:47:51;;;;;;;13.75;3.70;;;21.50;47.90;;;;;;4990827;28;20050;-72
2022/03/18 12:50:24;;;;;;;11.57;3.50;;;21.40;48.50;;;;;;4950077;28;246938;-72
2022/03/18 12:52:50;;;;;;;16.00;3.70;;;21.60;48.60;;;;;;4986888;28;20181;-75
2022/03/18 12:55:18;;;;;;;12.23;3.45;;;21.90;49.10;;;;;;4934725;28;264348;-74
2022/03/18 12:57:44;;;;;;;14.02;4.18;;;22.20;48.10;;;;;;4987907;28;20427;-74
2022/03/18 13:00:13;;;;;;;14.98;3.65;;;21.20;47.80;;;;;;4935421;28;273404;-74